• Join FlightAware (Why Join?)
  • Login
  • US Flag 
 
03:56AM EST


 

Airport Tracker/Info


-or-


 

Live Flight TrackerFlight Track Log ✈ SQH50 ✈ 09-Mar-2012 ✈ KDAL - KELD

Flight Track Log - Related Links

Times and Time Zones

All times are in EST time to prevent confusion due to time zone crossing. See the SQH50 flight status page for this flight to view local times or setup timezone preferences in your user account.

Time Position Orientation Groundspeed Altitude Reporting Facility
EST Latitude Longitude Course Direction KTS MPH feet Rate Location/Type
02:17PM 32.8647 -96.8611 336° Northwest 96 110 1,000  Level FAA TRACON SMA TRACON (SMA)
02:18PM 32.8858 -96.8722 334° Northwest 138 159 1,700 1,260 Climbing FAA TRACON SMA TRACON (SMA)
02:19PM 32.9108 -96.8867 39° Northeast 147 169 2,700 1,320 Climbing FAA TRACON SMA TRACON (SMA)
02:19PM 32.9300 -96.8683 48° Northeast 133 153 3,500 900 Climbing FAA TRACON SMA TRACON (SMA)
02:20PM 32.9464 -96.8467 54° Northeast 144 166 3,900 600 Climbing FAA TRACON SMA TRACON (SMA)
02:21PM 32.9647 -96.8167 90° East 165 190 4,300 600 Climbing FAA TRACON SMA TRACON (SMA)
02:21PM 32.9647 -96.7775 105° East 177 204 4,700 600 Climbing FAA TRACON SMA TRACON (SMA)
02:22PM 32.9567 -96.7417 105° East 183 211 5,100 600 Climbing FAA TRACON SMA TRACON (SMA)
02:23PM 32.9464 -96.6950 105° East 191 220 5,600 600 Climbing FAA TRACON SMA TRACON (SMA)
02:23PM 32.9378 -96.6558 104° East 199 229 5,900 420 Climbing FAA TRACON SMA TRACON (SMA)
02:24PM 32.9292 -96.6158 104° East 203 234 6,200 480 Climbing FAA TRACON SMA TRACON (SMA)
02:25PM 32.9200 -96.5706 104° East 205 236 6,600 480 Climbing FAA TRACON SMA TRACON (SMA)
02:25PM 32.9103 -96.5247 104° East 207 238 6,900 420 Climbing FAA TRACON SMA TRACON (SMA)
02:26PM 32.9014 -96.4833 104° East 209 241 7,200 420 Climbing FAA TRACON SMA TRACON (SMA)
02:27PM 32.8917 -96.4372 104° East 210 242 7,500 480 Climbing FAA TRACON SMA TRACON (SMA)
02:27PM 32.8822 -96.3906 105° East 209 241 7,900 480 Climbing FAA TRACON SMA TRACON (SMA)
02:28PM 32.8731 -96.3492 86° East 209 241 8,200 420 Climbing FAA TRACON SMA TRACON (SMA)
02:29PM 32.8758 -96.3019 80° East 209 241 8,500 420 Climbing FAA TRACON SMA TRACON (SMA)
02:30PM 32.8825 -96.2547 82° East 210 242 8,800 480 Climbing FAA TRACON SMA TRACON (SMA)
02:30PM 32.8881 -96.2072 82° East 208 239 9,200 480 Climbing FAA TRACON SMA TRACON (SMA)
02:31PM 32.8931 -96.1656 80° East 207 238 9,500 420 Climbing FAA TRACON SMA TRACON (SMA)
02:31PM 32.8997 -96.1192 81° East 206 237 9,800 420 Climbing FAA TRACON SMA TRACON (SMA)
02:32PM 32.9056 -96.0769 84° East 209 241 10,100 420 Climbing FAA TRACON SMA TRACON (SMA)
02:33PM 32.9097 -96.0283 80° East 214 246 10,400 420 Climbing FAA TRACON SMA TRACON (SMA)
02:34PM 32.9167 -95.9792 82° East 218 251 10,700 420 Climbing FAA TRACON SMA TRACON (SMA)
02:34PM 32.9228 -95.9289 82° East 223 257 11,000 420 Climbing FAA TRACON SMA TRACON (SMA)
02:35PM 32.9278 -95.8836 83° East 225 259 11,300 480 Climbing FAA TRACON SMA TRACON (SMA)
02:36PM 32.9331 -95.8325 92° East 225 259 11,700 540 Climbing FAA TRACON SMA TRACON (SMA)
02:36PM 32.9314 -95.7822 82° East 221 254 12,100 420 Climbing Fort Worth Center
02:37PM 32.9389 -95.7153 82° East 221 254 12,500 420 Climbing Fort Worth Center
02:38PM 32.9481 -95.6361 83° East 221 254 13,000 480 Climbing Fort Worth Center
02:39PM 32.9556 -95.5592 82° East 221 254 13,500 420 Climbing Fort Worth Center
02:40PM 32.9647 -95.4847 82° East 226 260 13,900 240 Climbing Fort Worth Center
02:41PM 32.9739 -95.4053 83° East 231 266 14,000  Climbing Fort Worth Center
02:42PM 32.9811 -95.3333 86° East 236 272 14,000  Level Fort Worth Center
02:43PM 32.9861 -95.2489 81° East 246 283 14,000  Level Fort Worth Center
02:44PM 32.9969 -95.1644 86° East 252 290 14,000 180 Level Fort Worth Center
02:45PM 33.0017 -95.0825 81° East 252 290 14,400 420 Climbing Fort Worth Center
02:46PM 33.0128 -95.0006 84° East 252 290 14,900 420 Climbing Fort Worth Center
02:47PM 33.0197 -94.9258 84° East 247 284 15,300 420 Climbing Fort Worth Center
02:48PM 33.0264 -94.8464 81° East 242 278 15,800 420 Climbing Fort Worth Center
02:49PM 33.0372 -94.7669 82° East 237 273 16,200 420 Climbing Fort Worth Center
02:50PM 33.0461 -94.6897 83° East 237 273 16,700 360 Climbing Fort Worth Center
02:51PM 33.0547 -94.6053 83° East 237 273 17,000 -60 Climbing Fort Worth Center
02:52PM 33.0631 -94.5208 84° East 248 285 16,600 -540 Descending Fort Worth Center
02:53PM 33.0714 -94.4289 84° East 261 300 16,000 -600 Descending Fort Worth Center
02:54PM 33.0797 -94.3367 83° East 271 312 15,400 -600 Descending Fort Worth Center
02:55PM 33.0897 -94.2422 83° East 277 319 14,900 -300 Descending Fort Worth Center
02:56PM 33.0981 -94.1553 84° East 272 313 14,900  Level Fort Worth Center
02:57PM 33.1061 -94.0681 83° East 267 307 14,900  Level Fort Worth Center
02:58PM 33.1144 -93.9833 84° East 262 302 15,000  Climbing Fort Worth Center
02:59PM 33.1225 -93.8964 84° East 262 302 14,900 -60 Descending Fort Worth Center
03:00PM 33.1303 -93.8092 84° East 257 296 14,900  Level Fort Worth Center
03:01PM 33.1383 -93.7219 83° East 257 296 14,900 -480 Level Fort Worth Center
03:02PM 33.1481 -93.6322 83° East 257 296 14,000 -960 Descending Fort Worth Center
03:03PM 33.1578 -93.5378 84° East 269 310 13,000 -1,080 Descending Fort Worth Center
03:04PM 33.1653 -93.4456 82° East 275 316 11,900 -1,200 Descending Fort Worth Center
03:05PM 33.1750 -93.3606 82° East 263 303 10,600 -1,320 Descending Fort Worth Center